Time;durP1;ratioP1;P1;durP2;ratioP2;P2;SDS_P1;SDS_P2;PMS_P1;PMS_P2;Temp;Humidity;BMP_temperature;BMP_pressure;BME280_temperature;BME280_humidity;BME280_pressure;Samples;Min_cycle;Max_cycle;Signal;HPM_P1;HPM_P2
2023/01/12 00:01:32;;;;;;;9.15;2.47;;;9.10;84.40;;;;;;5134378;27;20375;-79
2023/01/12 00:03:58;;;;;;;15.45;3.50;;;9.10;84.40;;;;;;5134059;27;20039;-78
2023/01/12 00:06:24;;;;;;;18.23;4.00;;;9.10;84.40;;;;;;5117120;27;20043;-78
2023/01/12 00:08:51;;;;;;;14.02;3.90;;;9.10;84.40;;;;;;5134331;27;20398;-78
2023/01/12 00:11:17;;;;;;;12.40;3.05;;;9.10;84.40;;;;;;5134209;27;20031;-78
2023/01/12 00:13:43;;;;;;;14.57;3.25;;;9.10;84.40;;;;;;5116663;27;20041;-78
2023/01/12 00:19:08;;;;;;;14.70;2.60;;;9.10;84.40;;;;;;5134109;27;20513;-78
2023/01/12 00:21:38;;;;;;;16.13;3.38;;;9.00;84.20;;;;;;5116675;27;20070;-78
2023/01/12 00:24:06;;;;;;;13.13;2.80;;;9.10;84.30;;;;;;5117360;27;20035;-78
2023/01/12 00:26:31;;;;;;;15.63;3.03;;;9.10;84.20;;;;;;5117411;27;20406;-78
2023/01/12 00:28:57;;;;;;;13.02;2.60;;;9.00;84.20;;;;;;5150985;27;20055;-78
2023/01/12 00:31:23;;;;;;;22.75;3.90;;;9.00;84.20;;;;;;5099215;28;20395;-78
2023/01/12 00:33:48;;;;;;;16.48;3.45;;;9.00;84.20;;;;;;5115763;27;20409;-78
2023/01/12 00:36:17;;;;;;;15.40;3.28;;;9.10;84.20;;;;;;5133089;27;20047;-78
2023/01/12 00:38:43;;;;;;;17.40;3.88;;;9.00;84.20;;;;;;5133928;27;20039;-78
2023/01/12 00:45:20;;;;;;;13.82;3.03;;;9.00;84.30;;;;;;5133656;27;20551;-78
2023/01/12 00:46:42;;;;;;;16.02;3.30;;;9.00;84.50;;;;;;5115528;27;20054;-78
2023/01/12 00:49:07;;;;;;;19.25;4.28;;;9.00;84.50;;;;;;5133656;27;20035;-78
2023/01/12 00:51:33;;;;;;;11.18;2.60;;;9.00;84.50;;;;;;5133379;27;20067;-78
2023/01/12 00:54:03;;;;;;;16.95;3.15;;;9.00;84.70;;;;;;5116542;27;20031;-78
2023/01/12 00:56:29;;;;;;;16.33;3.28;;;9.10;84.70;;;;;;5133422;27;20043;-78
2023/01/12 00:58:55;;;;;;;16.80;3.50;;;9.00;84.70;;;;;;5133312;27;20051;-79
2023/01/12 01:01:20;;;;;;;15.45;3.22;;;9.00;84.70;;;;;;5116114;27;20067;-79
2023/01/12 01:03:46;;;;;;;13.43;2.58;;;9.00;84.70;;;;;;5133019;27;20069;-79
2023/01/12 01:06:12;;;;;;;18.88;3.28;;;9.00;84.70;;;;;;5099320;27;20039;-79
2023/01/12 01:08:37;;;;;;;15.80;3.65;;;9.10;84.70;;;;;;5116255;27;20039;-78
2023/01/12 01:11:09;;;;;;;23.75;3.88;;;9.10;84.80;;;;;;5099134;27;20482;-78
2023/01/12 01:13:36;;;;;;;19.40;3.38;;;9.10;84.80;;;;;;5133027;27;20056;-79
2023/01/12 01:16:03;;;;;;;19.73;4.13;;;9.00;84.80;;;;;;5132797;27;20046;-79
2023/01/12 01:18:30;;;;;;;19.33;3.63;;;9.10;84.80;;;;;;5115965;27;20071;-78
2023/01/12 01:20:56;;;;;;;14.98;3.50;;;9.10;84.80;;;;;;5115831;27;20078;-79
2023/01/12 01:23:24;;;;;;;21.70;4.35;;;9.00;84.70;;;;;;5132691;27;20035;-79
2023/01/12 01:25:50;;;;;;;22.50;3.97;;;9.10;84.80;;;;;;5115605;27;20483;-79
2023/01/12 01:28:16;;;;;;;16.83;3.22;;;9.00;84.70;;;;;;5132417;27;20047;-79
2023/01/12 01:30:42;;;;;;;19.23;3.33;;;9.10;84.70;;;;;;5114647;27;20122;-79
2023/01/12 01:33:08;;;;;;;17.30;4.32;;;9.10;84.70;;;;;;5097720;28;20482;-79
2023/01/12 01:35:37;;;;;;;18.65;4.07;;;9.10;84.70;;;;;;5132542;28;20035;-79
2023/01/12 01:38:04;;;;;;;16.38;3.53;;;9.10;84.70;;;;;;5115740;28;20362;-79
2023/01/12 01:40:30;;;;;;;20.33;3.53;;;9.10;84.70;;;;;;5115399;28;20091;-78
2023/01/12 01:42:56;;;;;;;20.27;3.75;;;9.10;84.70;;;;;;5132257;27;20126;-79
2023/01/12 01:45:22;;;;;;;16.67;3.67;;;9.10;84.70;;;;;;5132300;27;20078;-79
2023/01/12 01:48:00;;;;;;;17.73;3.55;;;9.10;84.70;;;;;;5136917;27;20044;-79
2023/01/12 01:50:33;;;;;;;17.42;3.83;;;9.10;84.80;;;;;;5137060;27;20038;-79
2023/01/12 01:53:03;;;;;;;16.67;3.53;;;9.10;84.80;;;;;;5136809;27;20051;-79
2023/01/12 01:55:35;;;;;;;17.08;3.63;;;9.10;84.90;;;;;;5119756;27;20108;-79
2023/01/12 01:58:12;;;;;;;18.15;3.20;;;9.10;84.90;;;;;;5136825;27;20043;-79
2023/01/12 02:00:40;;;;;;;12.05;2.85;;;9.10;85.40;;;;;;5136454;27;20041;-78
2023/01/12 02:03:09;;;;;;;17.08;3.10;;;9.10;85.00;;;;;;5119096;27;20031;-78
2023/01/12 02:05:38;;;;;;;17.02;3.85;;;9.20;85.20;;;;;;5136603;27;20075;-79
2023/01/12 02:08:10;;;;;;;16.63;3.65;;;9.10;85.10;;;;;;5119486;27;20061;-79
2023/01/12 02:10:37;;;;;;;17.73;3.92;;;9.10;85.20;;;;;;5136557;27;20087;-77
2023/01/12 02:16:19;;;;;;;16.70;3.30;;;9.20;85.40;;;;;;5136474;27;20152;-76
2023/01/12 02:19:24;;;;;;;16.70;3.08;;;9.20;85.50;;;;;;5115560;28;20063;-76
2023/01/12 02:22:18;;;;;;;16.23;4.18;;;9.10;85.50;;;;;;5115141;28;20083;-76
2023/01/12 02:25:27;;;;;;;19.98;3.63;;;9.10;85.60;;;;;;5125391;27;20103;-76
2023/01/12 02:28:23;;;;;;;14.82;3.15;;;9.20;85.70;;;;;;5135394;27;20129;-76
2023/01/12 02:31:01;;;;;;;21.90;4.45;;;9.20;85.80;;;;;;5128811;27;20558;-78
2023/01/12 02:33:41;;;;;;;21.85;4.07;;;9.20;85.90;;;;;;5135666;27;20043;-78
2023/01/12 02:36:26;;;;;;;17.83;3.65;;;9.10;85.90;;;;;;5136076;27;20035;-78
2023/01/12 02:39:05;;;;;;;22.50;4.07;;;9.10;86.00;;;;;;5137022;27;20104;-78
2023/01/12 02:45:11;;;;;;;19.60;4.47;;;9.20;86.10;;;;;;5126104;27;20054;-78
2023/01/12 02:47:45;;;;;;;17.52;3.17;;;9.20;86.30;;;;;;5135898;27;20050;-78
2023/01/12 02:50:20;;;;;;;18.17;4.05;;;9.20;86.30;;;;;;5135771;27;20038;-78
2023/01/12 02:52:47;;;;;;;;;;;9.20;86.40;;;;;;5153132;27;20046;-78
2023/01/12 02:55:14;;;;;;;17.92;3.97;;;9.20;86.30;;;;;;5136030;27;19958;-78
2023/01/12 02:57:41;;;;;;;21.65;3.90;;;9.20;86.50;;;;;;5133954;27;20123;-78
2023/01/12 03:00:08;;;;;;;15.52;3.75;;;9.20;86.60;;;;;;5144164;27;20040;-78
2023/01/12 03:02:35;;;;;;;23.77;4.97;;;9.20;86.70;;;;;;5115014;28;20486;-78
2023/01/12 03:05:01;;;;;;;15.05;3.67;;;9.20;86.80;;;;;;5114833;28;20044;-78
2023/01/12 03:07:43;;;;;;;19.95;4.03;;;9.20;86.90;;;;;;5114761;28;20055;-78
2023/01/12 03:10:38;;;;;;;21.40;4.18;;;9.20;87.00;;;;;;5127160;27;20084;-78
2023/01/12 03:13:08;;;;;;;12.98;2.80;;;9.30;87.20;;;;;;5114942;28;20075;-78
2023/01/12 03:15:38;;;;;;;17.15;3.22;;;9.20;87.10;;;;;;5114814;28;20089;-78
2023/01/12 03:18:17;;;;;;;16.73;2.97;;;9.30;87.20;;;;;;5117092;27;20444;-78
2023/01/12 03:20:50;;;;;;;14.18;2.80;;;9.30;87.30;;;;;;5135211;27;20080;-78
2023/01/12 03:23:24;;;;;;;18.75;4.78;;;9.30;87.30;;;;;;5117611;27;20039;-78
2023/01/12 03:25:53;;;;;;;13.02;3.22;;;9.30;87.40;;;;;;5117654;27;20045;-77
2023/01/12 03:28:22;;;;;;;17.60;3.33;;;9.30;87.40;;;;;;5134518;27;20056;-78
2023/01/12 03:31:02;;;;;;;14.23;3.30;;;9.30;87.40;;;;;;5135347;27;20096;-78
2023/01/12 03:33:28;;;;;;;12.00;2.70;;;9.30;87.50;;;;;;5152247;27;20031;-78
2023/01/12 03:36:04;;;;;;;12.68;2.97;;;9.40;87.50;;;;;;5117332;27;20047;-78
2023/01/12 03:38:56;;;;;;;7.32;2.10;;;9.30;87.50;;;;;;5117611;27;20039;-78
2023/01/12 03:41:29;;;;;;;13.75;2.42;;;9.30;87.40;;;;;;5127795;27;20397;-78
2023/01/12 03:44:00;;;;;;;9.52;2.15;;;9.40;87.60;;;;;;5135078;27;20035;-78
2023/01/12 03:46:36;;;;;;;10.55;2.53;;;9.30;87.50;;;;;;5134808;27;20046;-78
2023/01/12 03:49:12;;;;;;;12.48;2.28;;;9.30;87.50;;;;;;5134586;27;20043;-78
2023/01/12 03:51:44;;;;;;;12.02;3.20;;;9.30;87.50;;;;;;5134547;27;20489;-78
2023/01/12 03:54:11;;;;;;;11.23;2.30;;;9.30;87.40;;;;;;5134953;27;20398;-78
2023/01/12 03:56:38;;;;;;;10.00;2.47;;;9.30;87.40;;;;;;5134715;27;20054;-78
2023/01/12 03:59:04;;;;;;;10.85;2.72;;;9.40;87.50;;;;;;5151992;27;20119;-78
2023/01/12 04:01:31;;;;;;;8.57;1.67;;;9.40;87.50;;;;;;5151863;27;20039;-78
2023/01/12 04:03:57;;;;;;;10.20;2.42;;;9.40;87.50;;;;;;5117238;27;20103;-78
2023/01/12 04:06:22;;;;;;;9.50;2.90;;;9.40;87.50;;;;;;5084584;28;20123;-78
2023/01/12 04:08:48;;;;;;;8.05;2.63;;;9.40;87.60;;;;;;5113793;28;20043;-78
2023/01/12 04:13:58;;;;;;;8.20;1.98;;;9.40;87.60;;;;;;5130655;27;20184;-77
2023/01/12 04:16:24;;;;;;;12.23;2.03;;;9.40;87.60;;;;;;5113590;28;20096;-78
2023/01/12 04:18:49;;;;;;;9.80;2.08;;;9.40;87.60;;;;;;5133045;27;20039;-78
2023/01/12 04:23:59;;;;;;;7.35;1.98;;;9.40;87.50;;;;;;5133911;27;20143;-77
2023/01/12 04:26:25;;;;;;;6.95;1.65;;;9.40;87.40;;;;;;5133857;27;20095;-77
2023/01/12 04:28:51;;;;;;;8.48;1.75;;;9.40;87.40;;;;;;5133322;27;20059;-77
2023/01/12 04:31:16;;;;;;;10.57;2.20;;;9.40;87.30;;;;;;5116610;27;20039;-77
2023/01/12 04:33:43;;;;;;;5.07;1.40;;;9.40;87.30;;;;;;5133713;27;20035;-77
2023/01/12 04:36:10;;;;;;;7.07;2.00;;;9.40;87.30;;;;;;5133658;27;20047;-77
2023/01/12 04:38:37;;;;;;;7.70;1.80;;;9.40;87.30;;;;;;5116618;27;20027;-77
2023/01/12 04:41:03;;;;;;;12.45;1.83;;;9.40;87.30;;;;;;5133726;27;20039;-77
2023/01/12 04:43:29;;;;;;;5.28;1.38;;;9.40;87.30;;;;;;5116370;27;20070;-77
2023/01/12 04:45:55;;;;;;;7.28;1.88;;;9.40;87.20;;;;;;5116221;28;20074;-77
2023/01/12 04:48:20;;;;;;;9.50;2.08;;;9.40;87.30;;;;;;5116350;27;20084;-77
2023/01/12 04:50:48;;;;;;;8.00;1.92;;;9.40;87.20;;;;;;5116392;27;20092;-77
2023/01/12 04:53:14;;;;;;;4.90;1.83;;;9.40;87.20;;;;;;5133451;27;20508;-78
2023/01/12 04:55:41;;;;;;;9.95;1.85;;;9.40;87.20;;;;;;5099385;27;20043;-78
2023/01/12 04:58:08;;;;;;;7.20;1.52;;;9.40;87.10;;;;;;5095902;28;20051;-78
2023/01/12 05:00:34;;;;;;;3.88;1.20;;;9.40;87.20;;;;;;5119961;27;20031;-79
2023/01/12 05:03:01;;;;;;;4.80;1.42;;;9.40;87.00;;;;;;5133279;27;20031;-78
2023/01/12 05:05:32;;;;;;;5.03;1.40;;;9.40;87.00;;;;;;5133205;27;20196;-78
2023/01/12 05:10:52;;;;;;;4.28;1.20;;;9.30;86.90;;;;;;5133041;27;20051;-79
2023/01/12 05:13:18;;;;;;;2.90;1.20;;;9.30;86.90;;;;;;5132968;27;20050;-79
2023/01/12 05:15:44;;;;;;;4.93;1.02;;;9.30;86.80;;;;;;5116023;27;20043;-79
2023/01/12 05:18:09;;;;;;;5.60;1.00;;;9.30;86.80;;;;;;5116135;27;20043;-78
2023/01/12 05:20:35;;;;;;;3.28;1.33;;;9.30;86.80;;;;;;5132845;27;20192;-80
2023/01/12 05:23:01;;;;;;;5.25;1.05;;;9.30;86.80;;;;;;5133392;27;20375;-79
2023/01/12 05:25:28;;;;;;;4.05;1.25;;;9.30;86.80;;;;;;5115836;27;20046;-79
2023/01/12 05:27:57;;;;;;;3.97;1.10;;;9.30;86.80;;;;;;5116330;27;20066;-79
2023/01/12 05:30:23;;;;;;;4.07;0.98;;;9.30;86.90;;;;;;5133145;27;20042;-79
2023/01/12 05:32:49;;;;;;;4.38;1.20;;;9.30;86.90;;;;;;5115683;28;20043;-79
2023/01/12 05:35:15;;;;;;;4.57;1.13;;;9.30;86.90;;;;;;5133028;28;20083;-79
2023/01/12 05:37:40;;;;;;;3.63;1.08;;;9.30;87.00;;;;;;5115827;28;20053;-79
2023/01/12 05:40:07;;;;;;;5.32;1.00;;;9.30;87.00;;;;;;5115583;28;20118;-79
2023/01/12 05:45:17;;;;;;;2.53;0.90;;;9.30;87.50;;;;;;5132449;28;20479;-79
2023/01/12 05:47:42;;;;;;;3.78;1.15;;;9.30;87.20;;;;;;5115818;28;20071;-79
2023/01/12 05:50:08;;;;;;;4.03;1.92;;;9.30;87.20;;;;;;5132979;28;20096;-80
2023/01/12 05:52:34;;;;;;;5.57;1.20;;;9.20;87.30;;;;;;5116030;27;20031;-79
2023/01/12 05:55:00;;;;;;;3.92;1.33;;;9.30;87.40;;;;;;5115529;28;20039;-79
2023/01/12 05:57:28;;;;;;;3.22;1.20;;;9.30;87.50;;;;;;5115557;28;20043;-79
2023/01/12 05:59:54;;;;;;;3.25;1.00;;;9.30;87.60;;;;;;5116039;28;20047;-79
2023/01/12 06:02:20;;;;;;;5.22;1.08;;;9.30;87.60;;;;;;5132589;28;20035;-79
2023/01/12 06:04:47;;;;;;;2.55;0.90;;;9.30;87.70;;;;;;5132810;28;20040;-80
2023/01/12 06:07:14;;;;;;;4.43;0.98;;;9.30;87.80;;;;;;5132040;27;20039;-75
2023/01/12 06:09:40;;;;;;;3.20;0.80;;;9.30;87.80;;;;;;5131781;27;20466;-76
2023/01/12 06:14:52;;;;;;;4.43;1.10;;;9.30;88.00;;;;;;5131967;28;20544;-75
2023/01/12 06:17:17;;;;;;;2.28;0.80;;;9.40;88.50;;;;;;5115007;28;20039;-75
2023/01/12 06:19:43;;;;;;;2.70;1.05;;;9.40;88.10;;;;;;5115541;28;20087;-75
2023/01/12 06:22:09;;;;;;;2.10;1.00;;;9.40;88.20;;;;;;5132003;28;20042;-75
2023/01/12 06:24:34;;;;;;;2.30;0.80;;;9.40;88.30;;;;;;5115437;28;20474;-76
2023/01/12 06:27:00;;;;;;;4.35;1.00;;;9.40;88.40;;;;;;5131476;28;20035;-76
2023/01/12 06:29:26;;;;;;;2.60;0.80;;;9.40;88.40;;;;;;5097847;28;20043;-76
2023/01/12 06:31:51;;;;;;;2.55;0.85;;;9.40;88.50;;;;;;5132460;27;20422;-76
2023/01/12 06:34:17;;;;;;;4.43;0.98;;;9.40;88.60;;;;;;5119007;27;20043;-76
2023/01/12 06:36:43;;;;;;;2.03;0.85;;;9.40;88.70;;;;;;5135469;27;20039;-76
2023/01/12 06:39:10;;;;;;;2.15;0.70;;;9.40;88.70;;;;;;5152843;27;20047;-76
2023/01/12 06:44:20;;;;;;;2.08;1.00;;;9.50;88.90;;;;;;5135865;27;20046;-76
2023/01/12 06:46:46;;;;;;;1.70;0.70;;;9.50;89.00;;;;;;5101099;27;20510;-74
2023/01/12 06:49:12;;;;;;;2.88;0.88;;;9.50;89.10;;;;;;5135451;27;20494;-74
2023/01/12 06:51:38;;;;;;;1.88;0.65;;;9.50;89.10;;;;;;5118358;27;20035;-73
2023/01/12 06:54:04;;;;;;;2.15;0.85;;;9.50;89.10;;;;;;5117737;27;20130;-74
2023/01/12 06:56:29;;;;;;;2.22;0.90;;;9.50;89.10;;;;;;5134866;27;20035;-75
2023/01/12 06:58:55;;;;;;;2.60;0.70;;;9.50;89.20;;;;;;5116881;27;20045;-74
2023/01/12 07:01:21;;;;;;;1.15;0.63;;;9.60;89.30;;;;;;5135445;27;20095;-74
2023/01/12 07:03:46;;;;;;;1.65;0.80;;;9.60;89.30;;;;;;5117900;27;20045;-74
2023/01/12 07:06:13;;;;;;;1.45;0.60;;;9.60;89.40;;;;;;5117883;27;20092;-74
2023/01/12 07:08:39;;;;;;;1.55;0.80;;;9.60;89.40;;;;;;5135086;27;20443;-74
2023/01/12 07:11:11;;;;;;;1.75;1.00;;;9.60;89.50;;;;;;5134954;27;20049;-75
2023/01/12 07:13:37;;;;;;;1.70;1.00;;;9.70;89.50;;;;;;5134707;27;20550;-74
2023/01/12 07:16:03;;;;;;;2.85;1.10;;;9.60;89.50;;;;;;5118112;27;20047;-74
2023/01/12 07:18:29;;;;;;;3.53;1.00;;;9.60;89.50;;;;;;5135213;27;20547;-75
2023/01/12 07:20:55;;;;;;;2.72;0.98;;;9.70;89.70;;;;;;5134626;27;20050;-75
2023/01/12 07:23:21;;;;;;;2.40;1.20;;;9.70;89.70;;;;;;5134874;27;20043;-75
2023/01/12 07:25:47;;;;;;;3.45;1.50;;;9.70;89.70;;;;;;5117493;27;20051;-74
2023/01/12 07:28:13;;;;;;;3.47;1.20;;;9.70;89.80;;;;;;5133952;27;20043;-74
2023/01/12 07:30:39;;;;;;;4.88;1.63;;;9.70;89.80;;;;;;5133956;27;20042;-74
2023/01/12 07:33:09;;;;;;;4.82;1.90;;;9.70;89.80;;;;;;5117499;27;20031;-75
2023/01/12 07:35:35;;;;;;;3.92;2.13;;;9.80;89.90;;;;;;5096969;28;20127;-74
2023/01/12 07:38:01;;;;;;;5.00;1.73;;;9.80;90.00;;;;;;5097062;28;20070;-75
2023/01/12 07:40:27;;;;;;;7.90;2.45;;;9.80;90.00;;;;;;5113890;28;20043;-74
2023/01/12 07:43:04;;;;;;;7.55;2.35;;;9.80;90.00;;;;;;5113971;28;20035;-74
2023/01/12 07:45:30;;;;;;;12.65;2.92;;;9.80;90.00;;;;;;5113273;28;20039;-74
2023/01/12 07:47:56;;;;;;;12.68;2.70;;;9.90;90.10;;;;;;5122103;27;20050;-74
2023/01/12 07:50:24;;;;;;;21.60;4.78;;;9.90;90.10;;;;;;5117079;27;20114;-74
2023/01/12 07:52:50;;;;;;;18.40;3.97;;;9.90;90.10;;;;;;5134135;27;20039;-74
2023/01/12 07:55:17;;;;;;;16.92;3.55;;;9.90;90.10;;;;;;5117278;27;20031;-74
2023/01/12 07:57:57;;;;;;;16.33;3.25;;;10.00;90.20;;;;;;5134085;27;20047;-74
2023/01/12 08:00:24;;;;;;;27.80;3.90;;;10.00;90.20;;;;;;5101875;27;20118;-74
2023/01/12 08:02:51;;;;;;;27.23;4.78;;;10.00;90.30;;;;;;5116934;27;20047;-74
2023/01/12 08:05:17;;;;;;;25.73;4.38;;;10.00;90.30;;;;;;5116570;27;20043;-74
2023/01/12 08:07:43;;;;;;;27.75;4.35;;;10.10;90.40;;;;;;5133892;27;20043;-74
2023/01/12 08:10:10;;;;;;;30.63;5.45;;;10.20;90.40;;;;;;5133873;27;20116;-74
2023/01/12 08:12:36;;;;;;;32.53;4.60;;;10.20;90.40;;;;;;5116787;27;20061;-75
2023/01/12 08:15:03;;;;;;;28.50;5.18;;;10.20;90.40;;;;;;5100114;27;20459;-75
2023/01/12 08:17:36;;;;;;;25.45;5.20;;;10.20;90.40;;;;;;5133977;27;20050;-75
2023/01/12 08:20:09;;;;;;;34.58;5.95;;;10.30;90.50;;;;;;5133398;27;20103;-75
2023/01/12 08:22:39;;;;;;;28.38;4.90;;;10.30;90.50;;;;;;5133653;27;20045;-75
2023/01/12 08:25:11;;;;;;;28.95;4.70;;;10.30;90.40;;;;;;5133907;27;20371;-74
2023/01/12 08:27:40;;;;;;;29.92;5.13;;;10.30;90.50;;;;;;5116123;27;20039;-74
2023/01/12 08:30:07;;;;;;;26.80;4.78;;;10.40;90.50;;;;;;5133514;27;20107;-74
2023/01/12 08:32:34;;;;;;;29.17;4.70;;;10.40;90.50;;;;;;5133665;27;20088;-75
2023/01/12 08:35:01;;;;;;;30.38;5.22;;;10.40;90.50;;;;;;5133441;27;20031;-75
2023/01/12 08:37:27;;;;;;;27.73;5.70;;;10.50;90.50;;;;;;5150543;27;20050;-75
2023/01/12 08:39:53;;;;;;;30.67;5.97;;;10.40;90.50;;;;;;5116134;27;20410;-75
2023/01/12 08:42:22;;;;;;;30.00;5.75;;;10.50;90.50;;;;;;5133434;27;20034;-75
2023/01/12 08:44:48;;;;;;;28.08;5.32;;;10.50;90.50;;;;;;5117002;27;20043;-75
2023/01/12 08:47:26;;;;;;;29.48;4.85;;;10.50;90.50;;;;;;5133151;27;20141;-75
2023/01/12 08:49:52;;;;;;;26.02;5.22;;;10.50;90.50;;;;;;5133081;27;20046;-75
2023/01/12 08:52:18;;;;;;;26.98;4.82;;;10.60;90.50;;;;;;5133355;27;20095;-75
2023/01/12 08:54:44;;;;;;;23.20;4.88;;;10.50;90.40;;;;;;5115653;27;20031;-75
2023/01/12 08:57:10;;;;;;;26.92;5.32;;;10.50;90.50;;;;;;5098044;27;20084;-75
2023/01/12 08:59:35;;;;;;;27.10;4.97;;;10.60;90.40;;;;;;5132926;27;20092;-76
2023/01/12 09:02:01;;;;;;;27.58;4.75;;;10.60;90.40;;;;;;5115869;27;20091;-75
2023/01/12 09:04:27;;;;;;;27.02;4.70;;;10.60;90.40;;;;;;5115744;27;20467;-75
2023/01/12 09:06:53;;;;;;;24.95;4.65;;;10.60;90.40;;;;;;5132573;27;20035;-75
2023/01/12 09:09:20;;;;;;;23.13;5.07;;;10.70;90.40;;;;;;5115672;27;20088;-75
2023/01/12 09:11:47;;;;;;;26.48;3.85;;;10.70;90.40;;;;;;5115932;27;20452;-76
2023/01/12 09:14:14;;;;;;;20.92;3.85;;;10.70;90.40;;;;;;5115643;27;20041;-75
2023/01/12 09:16:41;;;;;;;19.05;4.13;;;10.70;90.40;;;;;;5132722;27;20130;-75
2023/01/12 09:19:07;;;;;;;19.55;3.90;;;10.70;90.40;;;;;;5095255;28;20036;-75
2023/01/12 09:21:37;;;;;;;21.85;4.10;;;10.80;90.40;;;;;;5111963;28;20122;-75
2023/01/12 09:24:03;;;;;;;22.80;4.45;;;10.70;90.40;;;;;;5112284;28;20371;-75
2023/01/12 09:26:34;;;;;;;21.23;4.13;;;10.80;90.40;;;;;;5111899;28;20559;-75
2023/01/12 09:29:03;;;;;;;24.38;4.63;;;10.80;90.40;;;;;;5111932;28;20105;-75
2023/01/12 09:31:30;;;;;;;19.75;4.72;;;10.80;90.40;;;;;;5112028;28;20122;-75
2023/01/12 09:33:56;;;;;;;23.80;5.00;;;10.80;90.40;;;;;;5112421;28;20452;-75
2023/01/12 09:36:25;;;;;;;18.83;4.45;;;10.80;90.30;;;;;;5111913;28;20036;-75
2023/01/12 09:38:51;;;;;;;21.67;4.30;;;10.80;90.30;;;;;;5112256;28;20517;-75
2023/01/12 09:47:33;;;;;;;22.00;4.40;;;10.90;90.40;;;;;;5127593;27;20051;-75
2023/01/12 09:50:09;;;;;;;25.08;4.82;;;10.90;90.30;;;;;;5132559;28;20039;-79
2023/01/12 09:52:43;;;;;;;19.10;4.30;;;10.90;90.30;;;;;;5133150;28;20038;-79
2023/01/12 09:55:16;;;;;;;22.27;3.95;;;11.00;90.30;;;;;;5133081;28;20043;-79
2023/01/12 09:58:13;;;;;;;25.27;4.57;;;10.90;90.20;;;;;;5132792;28;20427;-80
2023/01/12 10:00:38;;;;;;;23.40;4.55;;;11.00;90.20;;;;;;5133078;27;20035;-80
2023/01/12 10:03:19;;;;;;;21.30;4.70;;;11.00;90.20;;;;;;5133211;28;20039;-79
2023/01/12 10:06:01;;;;;;;23.17;4.03;;;11.00;90.20;;;;;;5150071;27;20372;-80
2023/01/12 10:08:41;;;;;;;21.15;3.88;;;11.00;90.20;;;;;;5136127;27;20431;-80
2023/01/12 10:11:24;;;;;;;22.33;4.47;;;11.00;90.10;;;;;;5136717;27;20039;-80
2023/01/12 10:14:11;;;;;;;20.52;4.35;;;11.10;90.10;;;;;;5119328;27;20141;-80
2023/01/12 10:16:43;;;;;;;25.38;4.63;;;11.10;90.10;;;;;;5119453;27;20053;-80
2023/01/12 10:19:32;;;;;;;21.38;5.13;;;11.10;90.20;;;;;;5119469;27;20039;-80
2023/01/12 10:22:02;;;;;;;17.60;4.07;;;11.10;90.00;;;;;;5119450;27;20046;-80
2023/01/12 10:24:28;;;;;;;23.73;4.45;;;11.10;90.00;;;;;;5119413;27;20081;-80
2023/01/12 10:27:02;;;;;;;20.65;3.58;;;11.10;89.90;;;;;;5136381;27;20036;-81
2023/01/12 10:29:30;;;;;;;13.38;3.05;;;11.10;89.90;;;;;;5120375;27;20051;-80
2023/01/12 10:31:56;;;;;;;13.90;3.58;;;11.10;89.80;;;;;;5136459;27;20047;-80
2023/01/12 10:34:22;;;;;;;16.25;3.58;;;11.20;89.90;;;;;;5119184;27;20375;-80
2023/01/12 10:36:56;;;;;;;18.42;4.10;;;11.10;89.80;;;;;;5119394;27;20085;-80
2023/01/12 10:39:26;;;;;;;16.95;3.90;;;11.10;89.70;;;;;;5119313;27;20359;-80
2023/01/12 10:45:19;;;;;;;19.35;3.75;;;11.20;89.70;;;;;;5136126;27;20103;-80
2023/01/12 10:47:46;;;;;;;23.38;4.88;;;11.20;89.80;;;;;;5135941;27;20054;-80
2023/01/12 10:50:28;;;;;;;16.67;4.43;;;11.20;89.80;;;;;;5118900;27;20031;-80
2023/01/12 10:53:00;;;;;;;19.23;4.50;;;11.20;89.80;;;;;;5136315;27;20432;-80
2023/01/12 10:55:30;;;;;;;18.88;3.80;;;11.20;89.80;;;;;;5118655;27;20035;-80
2023/01/12 10:57:56;;;;;;;21.55;4.35;;;11.20;89.70;;;;;;5135918;27;20131;-76
2023/01/12 11:00:24;;;;;;;19.58;4.20;;;11.20;89.70;;;;;;5117828;27;20035;-80
2023/01/12 11:02:50;;;;;;;24.52;4.10;;;11.20;89.70;;;;;;5134917;27;20050;-80
2023/01/12 11:05:36;;;;;;;18.70;4.25;;;11.30;89.60;;;;;;5135911;27;20478;-80
2023/01/12 11:08:02;;;;;;;18.02;3.55;;;11.30;89.60;;;;;;5136151;27;20043;-80
2023/01/12 11:10:31;;;;;;;23.00;3.50;;;11.30;89.60;;;;;;5118779;27;20035;-80
2023/01/12 11:12:59;;;;;;;19.58;3.55;;;11.30;89.60;;;;;;5136088;27;20378;-80
2023/01/12 11:15:27;;;;;;;20.58;3.92;;;11.30;89.50;;;;;;5135757;27;20480;-75
2023/01/12 11:18:15;;;;;;;20.15;3.65;;;11.40;89.50;;;;;;5134804;27;20046;-75
2023/01/12 11:20:53;;;;;;;15.90;3.78;;;11.40;89.40;;;;;;5135488;27;20452;-80
2023/01/12 11:23:56;;;;;;;12.98;3.22;;;11.40;89.60;;;;;;5118397;27;20046;-81
2023/01/12 11:26:29;;;;;;;21.67;3.90;;;11.40;89.40;;;;;;5134990;27;20038;-75
2023/01/12 11:29:20;;;;;;;20.23;3.72;;;11.40;89.60;;;;;;5117450;27;20092;-76
2023/01/12 11:31:47;;;;;;;17.85;4.43;;;11.50;89.70;;;;;;5134474;27;20546;-75
2023/01/12 11:34:21;;;;;;;23.30;4.88;;;11.50;89.60;;;;;;5134628;27;20068;-76
2023/01/12 11:36:51;;;;;;;18.95;3.63;;;11.50;89.60;;;;;;5117313;27;20035;-75
2023/01/12 11:39:23;;;;;;;20.50;4.28;;;11.60;89.60;;;;;;5134842;27;20035;-75
2023/01/12 11:44:50;;;;;;;18.15;3.17;;;11.60;89.40;;;;;;5134051;27;20070;-79
2023/01/12 11:47:22;;;;;;;20.77;3.20;;;11.60;89.40;;;;;;5134741;27;20047;-75
2023/01/12 11:50:19;;;;;;;16.80;3.75;;;11.60;89.30;;;;;;5133876;27;20040;-75
2023/01/12 11:52:45;;;;;;;17.67;3.88;;;11.70;89.20;;;;;;5097478;28;20069;-79
2023/01/12 11:55:14;;;;;;;20.33;3.92;;;11.70;89.20;;;;;;5116786;27;20115;-79
2023/01/12 11:58:01;;;;;;;16.65;3.72;;;11.70;89.10;;;;;;5134994;27;20599;-80
2023/01/12 12:00:41;;;;;;;18.85;3.45;;;11.70;88.90;;;;;;5135376;27;20137;-79
2023/01/12 12:03:38;;;;;;;18.98;3.45;;;11.70;88.90;;;;;;5134786;27;20046;-79
2023/01/12 12:06:21;;;;;;;14.95;4.05;;;11.80;88.70;;;;;;5134820;27;20432;-79
2023/01/12 12:09:05;;;;;;;22.48;4.82;;;11.70;88.70;;;;;;5134595;27;20043;-80
2023/01/12 12:11:36;;;;;;;18.65;3.95;;;11.80;88.60;;;;;;5134700;27;20039;-79
2023/01/12 12:14:29;;;;;;;20.02;4.53;;;11.80;88.70;;;;;;5133846;27;20046;-79
2023/01/12 12:17:15;;;;;;;18.33;3.83;;;11.80;88.70;;;;;;5117174;27;20424;-80
2023/01/12 12:20:05;;;;;;;25.55;5.00;;;11.80;88.60;;;;;;5116831;27;20047;-79
2023/01/12 12:22:36;;;;;;;20.73;4.95;;;11.70;88.50;;;;;;5134430;27;20070;-79
2023/01/12 12:25:11;;;;;;;20.10;4.60;;;11.80;88.60;;;;;;5134162;27;20047;-79
2023/01/12 12:27:44;;;;;;;28.58;5.57;;;11.70;88.50;;;;;;5133785;27;20050;-79
2023/01/12 12:30:24;;;;;;;17.00;3.90;;;11.80;88.60;;;;;;5116599;27;20086;-79
2023/01/12 12:33:08;;;;;;;23.08;4.75;;;11.70;88.50;;;;;;5134032;27;20035;-80
2023/01/12 12:35:49;;;;;;;20.60;4.43;;;11.70;88.50;;;;;;5133572;27;20121;-79
2023/01/12 12:39:05;;;;;;;20.92;4.47;;;11.70;88.50;;;;;;5134057;27;20417;-79
2023/01/12 12:45:18;;;;;;;21.77;4.82;;;11.70;88.40;;;;;;5133811;27;20406;-79
2023/01/12 12:47:58;;;;;;;23.48;4.50;;;11.70;88.90;;;;;;5133489;27;20046;-80
2023/01/12 12:51:01;;;;;;;22.67;4.65;;;11.80;88.60;;;;;;5133673;27;20161;-80
2023/01/12 12:53:44;;;;;;;23.38;4.88;;;11.80;88.40;;;;;;5133583;27;20156;-79
2023/01/12 12:56:16;;;;;;;24.08;4.95;;;11.70;88.30;;;;;;5133886;27;20047;-79
2023/01/12 12:59:00;;;;;;;18.35;4.90;;;11.70;88.40;;;;;;5133519;27;20082;-80
2023/01/12 13:01:26;;;;;;;23.95;4.82;;;11.70;88.20;;;;;;5116227;27;20038;-79
2023/01/12 13:03:56;;;;;;;21.17;4.22;;;11.70;88.20;;;;;;5116327;27;20067;-79
2023/01/12 13:06:34;;;;;;;22.17;4.55;;;11.80;88.30;;;;;;5116296;27;20477;-79
2023/01/12 13:09:23;;;;;;;20.90;4.57;;;11.80;88.10;;;;;;5133022;27;20062;-75
2023/01/12 13:11:59;;;;;;;22.83;4.88;;;11.80;88.10;;;;;;5132606;27;20118;-75
2023/01/12 13:14:37;;;;;;;26.00;4.85;;;11.80;88.10;;;;;;5132335;27;20493;-75
2023/01/12 13:17:23;;;;;;;20.25;4.82;;;11.80;88.00;;;;;;5132608;27;20039;-75
2023/01/12 13:20:01;;;;;;;23.45;5.00;;;11.80;87.80;;;;;;5115378;27;20138;-75
2023/01/12 13:22:48;;;;;;;20.88;4.72;;;11.80;87.90;;;;;;5115422;27;20046;-75
2023/01/12 13:25:21;;;;;;;13.43;3.17;;;11.80;87.90;;;;;;5115510;27;20081;-75
2023/01/12 13:28:01;;;;;;;23.58;4.25;;;11.80;87.90;;;;;;5131872;27;20091;-75
2023/01/12 13:30:27;;;;;;;21.85;5.18;;;11.80;87.90;;;;;;5132075;27;20047;-75
2023/01/12 13:33:22;;;;;;;15.82;4.03;;;11.70;87.90;;;;;;5115017;28;20038;-75
2023/01/12 13:35:48;;;;;;;15.23;3.53;;;11.80;87.90;;;;;;5119757;27;20389;-75
2023/01/12 13:38:33;;;;;;;20.23;3.53;;;11.70;88.00;;;;;;5127046;27;20176;-74
2023/01/12 13:41:02;;;;;;;;;;;11.70;87.90;;;;;;5143847;27;20030;-74
2023/01/12 13:43:36;;;;;;;17.00;4.78;;;11.70;87.80;;;;;;5143458;27;19919;-74
2023/01/12 13:46:11;;;;;;;22.25;4.25;;;11.70;88.10;;;;;;5128009;27;20377;-75
2023/01/12 13:48:43;;;;;;;20.05;3.75;;;11.70;88.10;;;;;;5144209;27;20239;-74
2023/01/12 13:51:28;;;;;;;17.58;3.95;;;11.70;88.20;;;;;;5144145;27;20130;-74